Terminal Aerodrome Forecast
Issued by NWS

Home | Current Version | Previous Version | Text Only | Print | Product List | Glossary On
Versions: 1 2 3 4 5 6 7 8 9 10 11 12 13 14 15 16 17 18 19 20 21 22 23 24 25
000
FTUS41 KCAR 302300
TAFFVE
TAF
KFVE 302321Z 3100/3124 18005KT P6SM VCSH SCT050 BKN080
     FM310300 15004KT P6SM SCT090
     FM310900 VRB03KT P6SM BCFG SCT002
     FM311100 16004KT P6SM SCT250
     FM311600 17007KT P6SM VCTS SCT040 BKN070CB=

USA.gov is the U.S. government's official web portal to all federal, state and local government web resources and services.